createdAt,value
2023-03-06T00:03:15.071Z,66.30
2023-03-06T00:08:14.249Z,54.50
2023-03-06T00:13:13.477Z,60.70
2023-03-06T00:18:12.681Z,82.80
2023-03-06T00:23:11.879Z,63.40
2023-03-06T00:28:10.079Z,68.90
2023-03-06T00:33:09.425Z,80.50
2023-03-06T00:38:09.616Z,71.20
2023-03-06T00:43:07.805Z,175.00
2023-03-06T00:48:08.021Z,160.60
2023-03-06T00:53:06.225Z,141.50
2023-03-06T00:58:06.407Z,130.20
2023-03-06T01:03:03.570Z,128.30
2023-03-06T01:08:03.738Z,120.20
2023-03-06T01:13:03.935Z,119.50
2023-03-06T01:18:04.136Z,109.40
2023-03-06T01:23:03.306Z,101.60
2023-03-06T01:28:00.504Z,95.10
2023-03-06T01:32:59.685Z,90.20
2023-03-06T01:37:58.861Z,87.90
2023-03-06T01:42:58.037Z,80.80
2023-03-06T01:47:57.204Z,75.40
2023-03-06T01:52:56.399Z,71.50
2023-03-06T01:57:55.589Z,67.70
2023-03-06T02:02:54.765Z,64.90
2023-03-06T02:07:53.993Z,59.90
2023-03-06T02:12:53.174Z,54.10
2023-03-06T02:17:52.695Z,54.90
2023-03-06T02:22:51.848Z,50.90
2023-03-06T02:27:53.982Z,50.10
2023-03-06T02:32:50.148Z,47.50
2023-03-06T02:37:50.345Z,48.50
2023-03-06T02:42:50.567Z,44.40
2023-03-06T02:47:47.742Z,40.60
2023-03-06T02:52:47.953Z,42.50
2023-03-06T02:57:45.140Z,37.70
2023-03-06T03:02:45.335Z,36.20
2023-03-06T03:07:44.564Z,36.40
2023-03-06T03:12:43.744Z,33.80
2023-03-06T03:17:42.939Z,33.40
2023-03-06T03:22:44.170Z,31.50
2023-03-06T03:27:41.326Z,30.10
2023-03-06T03:32:40.581Z,28.40
2023-03-06T03:37:39.882Z,26.80
2023-03-06T03:42:39.154Z,26.50
2023-03-06T03:47:39.436Z,26.80
2023-03-06T03:52:37.732Z,25.60
2023-03-06T03:57:38.029Z,25.70
2023-03-06T04:02:36.341Z,24.40
2023-03-06T04:07:36.669Z,23.30
2023-03-06T04:12:35.754Z,21.80
2023-03-06T04:17:35.059Z,22.60
2023-03-06T04:22:34.383Z,20.50
2023-03-06T04:27:32.500Z,19.90
2023-03-06T04:32:30.722Z,18.50
2023-03-06T04:37:32.833Z,19.30
2023-03-06T04:42:31.151Z,17.70
2023-03-06T04:47:29.480Z,18.30
2023-03-06T04:52:28.596Z,16.90
2023-03-06T04:57:27.739Z,16.40
2023-03-06T05:02:28.957Z,17.00
2023-03-06T05:07:26.120Z,16.20
2023-03-06T05:12:26.243Z,15.70
2023-03-06T05:17:25.565Z,16.20
2023-03-06T05:22:23.923Z,14.90
2023-03-06T05:27:22.189Z,15.40
2023-03-06T05:32:22.344Z,14.00
2023-03-06T05:37:21.446Z,14.30
2023-03-06T05:42:20.589Z,15.60
2023-03-06T05:47:19.945Z,14.60
2023-03-06T05:52:19.233Z,12.40
2023-03-06T05:57:18.537Z,13.10
2023-03-06T06:02:17.858Z,16.90
2023-03-06T06:07:18.115Z,16.50
2023-03-06T06:12:16.559Z,15.40
2023-03-06T06:17:15.648Z,13.50
2023-03-06T06:22:15.961Z,12.50
2023-03-06T06:27:16.280Z,12.80
2023-03-06T06:32:13.572Z,13.30
2023-03-06T06:37:13.714Z,13.20
2023-03-06T06:42:29.824Z,14.80
2023-03-06T06:47:23.049Z,15.40
2023-03-06T06:52:10.344Z,14.90
2023-03-06T06:57:09.636Z,13.20
2023-03-06T07:02:09.953Z,13.70
2023-03-06T07:07:09.247Z,13.60
2023-03-06T07:12:08.537Z,13.00
2023-03-06T07:17:06.870Z,12.80
2023-03-06T07:22:06.157Z,13.00
2023-03-06T07:27:05.561Z,12.60
2023-03-06T07:32:06.740Z,12.70
2023-03-06T07:37:04.901Z,11.20
2023-03-06T07:42:02.050Z,13.00
2023-03-06T07:47:03.377Z,13.30
2023-03-06T07:52:03.709Z,14.60
2023-03-06T07:57:02.978Z,12.90
2023-03-06T08:02:01.304Z,13.40
2023-03-06T08:06:59.674Z,12.70
2023-03-06T08:12:00.856Z,11.70
2023-03-06T08:16:59.987Z,12.60
2023-03-06T08:21:59.294Z,13.80
2023-03-06T08:26:56.603Z,12.20
2023-03-06T08:31:55.922Z,12.90
2023-03-06T08:36:57.339Z,14.10
2023-03-06T08:41:54.488Z,14.70
2023-03-06T08:46:54.774Z,13.00
2023-03-06T08:51:53.068Z,16.60
2023-03-06T08:56:52.418Z,11.50
2023-03-06T09:01:52.558Z,15.60
2023-03-06T09:06:54.526Z,16.40
2023-03-06T09:11:49.918Z,15.80
2023-03-06T09:16:49.254Z,16.70
2023-03-06T09:21:49.420Z,15.40
2023-03-06T09:26:49.863Z,17.30
2023-03-06T09:31:48.044Z,15.70
2023-03-06T09:36:56.436Z,14.50
2023-03-06T09:41:45.584Z,12.30
2023-03-06T09:46:44.700Z,15.60
2023-03-06T09:51:44.029Z,14.90
2023-03-06T09:56:42.357Z,11.00
2023-03-06T10:01:44.506Z,14.70
2023-03-06T10:06:41.657Z,9.90
2023-03-06T10:11:40.959Z,13.70
2023-03-06T10:16:40.282Z,14.30
2023-03-06T10:21:40.612Z,14.40
2023-03-06T10:26:39.154Z,14.50
2023-03-06T10:31:41.232Z,8.10
2023-03-06T10:36:37.513Z,13.40
2023-03-06T10:41:36.876Z,13.50
2023-03-06T10:46:36.057Z,11.90
2023-03-06T10:51:34.255Z,7.80
2023-03-06T10:56:34.545Z,8.50
2023-03-06T11:01:33.904Z,9.00
2023-03-06T11:06:33.004Z,5.60
2023-03-06T11:11:37.745Z,5.10
2023-03-06T11:16:31.733Z,6.30
2023-03-06T11:21:31.764Z,9.80
2023-03-06T11:26:31.050Z,5.60
2023-03-06T11:31:31.171Z,9.00
2023-03-06T11:36:28.488Z,4.80
2023-03-06T11:41:28.817Z,7.90
2023-03-06T11:46:28.210Z,8.40
2023-03-06T11:51:27.349Z,7.70
2023-03-06T11:56:25.646Z,7.80
2023-03-06T12:01:25.997Z,5.10
2023-03-06T12:06:25.316Z,6.80
2023-03-06T12:11:24.476Z,4.50
2023-03-06T12:16:22.621Z,5.80
2023-03-06T12:21:21.753Z,9.10
2023-03-06T12:26:22.092Z,4.70
2023-03-06T12:31:20.285Z,7.30
2023-03-06T12:36:20.420Z,7.30
2023-03-06T12:41:18.749Z,8.50
2023-03-06T12:46:18.113Z,5.70
2023-03-06T12:51:17.221Z,7.80
2023-03-06T12:56:17.497Z,7.60
2023-03-06T13:01:16.792Z,5.30
2023-03-06T13:06:16.144Z,4.50
2023-03-06T13:11:14.236Z,7.20
2023-03-06T13:16:16.555Z,6.30
2023-03-06T13:21:12.695Z,6.60
2023-03-06T13:26:13.023Z,7.10
2023-03-06T13:31:21.457Z,6.10
2023-03-06T13:36:10.343Z,6.10
2023-03-06T13:41:09.681Z,6.80
2023-03-06T13:46:09.059Z,5.10
2023-03-06T13:51:07.981Z,3.00
2023-03-06T13:56:08.132Z,7.20
2023-03-06T14:01:06.305Z,6.50
2023-03-06T14:06:06.407Z,4.90
2023-03-06T14:11:04.719Z,6.60
2023-03-06T14:16:03.898Z,4.70
2023-03-06T14:21:04.085Z,5.70
2023-03-06T14:26:02.393Z,5.40
2023-03-06T14:31:01.691Z,2.50
2023-03-06T14:36:02.107Z,4.60
2023-03-06T14:41:00.282Z,3.70
2023-03-06T14:45:59.370Z,3.30
2023-03-06T14:50:58.687Z,5.70
2023-03-06T14:55:57.833Z,6.20
2023-03-06T15:00:56.966Z,6.40
2023-03-06T15:05:56.272Z,6.70
2023-03-06T15:10:55.589Z,6.00
2023-03-06T15:15:55.022Z,6.60
2023-03-06T15:20:56.182Z,5.80
2023-03-06T15:25:52.462Z,7.00
2023-03-06T15:30:54.845Z,6.00
2023-03-06T15:35:51.129Z,6.90
2023-03-06T15:40:51.458Z,4.60
2023-03-06T15:45:50.599Z,7.00
2023-03-06T15:50:49.724Z,11.80
2023-03-06T15:55:49.033Z,5.60
2023-03-06T16:00:48.414Z,4.80
2023-03-06T16:05:47.533Z,6.60
2023-03-06T16:10:47.876Z,5.50
2023-03-06T16:15:47.025Z,6.30
2023-03-06T16:20:46.186Z,6.20
2023-03-06T16:25:46.862Z,6.00
2023-03-06T16:30:44.651Z,5.60
2023-03-06T16:35:43.849Z,6.70
2023-03-06T16:40:43.188Z,6.00
2023-03-06T16:45:43.329Z,6.80
2023-03-06T16:50:40.501Z,6.30
2023-03-06T16:55:39.980Z,5.90
2023-03-06T17:00:38.806Z,6.00
2023-03-06T17:05:38.069Z,5.90
2023-03-06T17:10:37.243Z,6.90
2023-03-06T17:15:36.398Z,6.90
2023-03-06T17:20:35.645Z,7.20
2023-03-06T17:25:34.735Z,7.60
2023-03-06T17:30:34.061Z,5.70
2023-03-06T17:35:34.422Z,4.60
2023-03-06T17:40:33.579Z,4.60
2023-03-06T17:45:35.623Z,5.90
2023-03-06T17:50:30.985Z,5.10
2023-03-06T17:55:31.470Z,4.90
2023-03-06T18:00:28.817Z,4.70
2023-03-06T18:05:28.765Z,5.80
2023-03-06T18:10:29.078Z,4.80
2023-03-06T18:15:27.766Z,4.40
2023-03-06T18:20:27.577Z,5.80
2023-03-06T18:25:27.245Z,5.10
2023-03-06T18:30:25.400Z,4.80
2023-03-06T18:35:24.523Z,4.90
2023-03-06T18:40:25.924Z,5.10
2023-03-06T18:45:23.739Z,2.90
2023-03-06T18:50:22.229Z,6.10
2023-03-06T18:55:22.089Z,81.20
2023-03-06T19:00:21.605Z,193.00
2023-03-06T19:05:20.909Z,136.90
2023-03-06T19:10:20.221Z,118.20
2023-03-06T19:15:19.221Z,115.00
2023-03-06T19:20:18.269Z,94.50
2023-03-06T19:25:18.713Z,86.80
2023-03-06T19:30:16.300Z,77.00
2023-03-06T19:35:15.461Z,65.80
2023-03-06T19:40:15.644Z,147.20
2023-03-06T19:45:13.798Z,243.90
2023-03-06T19:50:14.019Z,282.60
2023-03-06T19:55:12.160Z,349.80
2023-03-06T20:00:11.319Z,297.00
2023-03-06T20:05:12.560Z,327.90
2023-03-06T20:10:13.691Z,388.60
2023-03-06T20:15:09.879Z,337.10
2023-03-06T20:20:08.921Z,304.20
2023-03-06T20:25:07.060Z,277.10
2023-03-06T20:30:08.047Z,373.30
2023-03-06T20:35:05.816Z,395.50
2023-03-06T20:40:06.788Z,437.20
2023-03-06T20:45:06.104Z,436.70
2023-03-06T20:50:03.979Z,406.40
2023-03-06T20:55:02.668Z,370.50
2023-03-06T21:00:00.745Z,388.30
2023-03-06T21:05:01.797Z,404.40
2023-03-06T21:09:59.972Z,362.10
2023-03-06T21:14:59.082Z,340.40
2023-03-06T21:19:59.422Z,296.00
2023-03-06T21:24:59.740Z,279.80
2023-03-06T21:29:58.018Z,218.60
2023-03-06T21:34:56.386Z,182.10
2023-03-06T21:39:56.555Z,174.20
2023-03-06T21:44:54.646Z,146.70
2023-03-06T21:49:53.892Z,129.60
2023-03-06T21:54:53.188Z,119.40
2023-03-06T21:59:52.452Z,109.20
2023-03-06T22:04:51.746Z,117.40
2023-03-06T22:09:51.052Z,95.60
2023-03-06T22:14:50.352Z,86.60
2023-03-06T22:19:49.688Z,90.50
2023-03-06T22:24:49.008Z,181.60
2023-03-06T22:29:48.317Z,217.00
2023-03-06T22:34:48.648Z,200.30
2023-03-06T22:39:46.962Z,292.10
2023-03-06T22:44:46.275Z,260.90
2023-03-06T22:49:45.589Z,228.10
2023-03-06T22:54:45.874Z,303.10
2023-03-06T22:59:44.176Z,294.30
2023-03-06T23:04:44.627Z,259.20
2023-03-06T23:09:44.765Z,223.80
2023-03-06T23:14:42.125Z,234.50
2023-03-06T23:19:42.266Z,342.40
2023-03-06T23:24:41.589Z,284.80
2023-03-06T23:29:41.908Z,368.00
2023-03-06T23:34:40.202Z,365.80
2023-03-06T23:39:39.478Z,397.80
2023-03-06T23:44:38.781Z,353.60
2023-03-06T23:49:37.028Z,327.50
2023-03-06T23:54:36.309Z,341.30
2023-03-06T23:59:35.613Z,340.20
